Orbital elements of ARIANE 44LP+ R/B
| Launched | 16 June 1994 |
| Flight ended | – |
| Launch site | Europe's Spaceport, Kourou, French Guiana |
| Owner | France |
| NORAD ID | 23127 |
| Date fetched |
Epoch osculation |
Inc. [°] |
Ecc. | RA asc node [hr] |
Arg Peri. [°] |
Mean anom [°] |
Mean motion [rev/day] |
Abs. mag |
| Date fetched |
Epoch osculation |
Inc. [°] |
Ecc. | RA asc node [hr] |
Arg Peri. [°] |
Mean anom [°] |
Mean motion [rev/day] |
Abs. mag |
| 2026 May 03 17:57 | 2026 Apr 30 14:19:26 | 7.7760 | 0.72322 | 21.9179 | 91.7811 | 344.1636 | 2.26613 | 4.243 |
| 2026 May 02 17:57 | 2026 Apr 30 14:19:26 | 7.7760 | 0.72322 | 21.9179 | 91.7811 | 344.1636 | 2.26613 | 4.243 |
| 2026 May 01 17:56 | 2026 Apr 30 14:19:26 | 7.7760 | 0.72322 | 21.9179 | 91.7811 | 344.1636 | 2.26613 | 4.243 |
| 2026 Apr 30 17:56 | 2026 Apr 30 14:19:26 | 7.7760 | 0.72322 | 21.9179 | 91.7811 | 344.1636 | 2.26613 | 4.243 |
| 2026 Apr 29 17:57 | 2026 Apr 24 10:05:36 | 7.7806 | 0.72311 | 22.0708 | 87.1087 | 344.1636 | 2.26613 | 4.243 |
| 2026 Apr 28 17:56 | 2026 Apr 24 10:05:36 | 7.7806 | 0.72311 | 22.0708 | 87.1087 | 344.1636 | 2.26613 | 4.243 |
| 2026 Apr 27 17:58 | 2026 Apr 24 10:05:36 | 7.7806 | 0.72311 | 22.0708 | 87.1087 | 344.1636 | 2.26613 | 4.243 |
| 2026 Apr 26 17:58 | 2026 Apr 24 10:05:36 | 7.7806 | 0.72311 | 22.0708 | 87.1087 | 344.1636 | 2.26613 | 4.243 |
| 2026 Apr 25 17:58 | 2026 Apr 24 10:05:36 | 7.7806 | 0.72311 | 22.0708 | 87.1087 | 344.1636 | 2.26613 | 4.243 |
| 2026 Apr 24 17:59 | 2026 Apr 24 10:05:36 | 7.7806 | 0.72311 | 22.0708 | 87.1087 | 344.1636 | 2.26613 | 4.243 |
| 2026 Apr 23 17:57 | 2026 Apr 19 03:01:40 | 7.7831 | 0.72305 | 22.2018 | 83.1012 | 344.1636 | 2.26613 | 4.243 |
| 2026 Apr 22 17:57 | 2026 Apr 19 03:01:40 | 7.7831 | 0.72305 | 22.2018 | 83.1012 | 344.1636 | 2.26613 | 4.243 |
| 2026 Apr 21 17:57 | 2026 Apr 19 03:01:40 | 7.7831 | 0.72305 | 22.2018 | 83.1012 | 344.1636 | 2.26613 | 4.243 |
| 2026 Apr 20 17:57 | 2026 Apr 19 03:01:40 | 7.7831 | 0.72305 | 22.2018 | 83.1012 | 344.1636 | 2.26613 | 4.243 |
| 2026 Apr 19 17:58 | 2026 Apr 19 03:01:40 | 7.7831 | 0.72305 | 22.2018 | 83.1012 | 344.1636 | 2.26613 | 4.243 |
| 2026 Apr 18 17:56 | 2026 Apr 12 22:46:36 | 7.7853 | 0.72290 | 22.3548 | 78.4248 | 344.1636 | 2.26613 | 4.243 |
| 2026 Apr 16 17:57 | 2026 Apr 12 22:46:36 | 7.7853 | 0.72290 | 22.3548 | 78.4248 | 344.1636 | 2.26613 | 4.243 |
| 2026 Apr 14 17:57 | 2026 Apr 12 22:46:36 | 7.7853 | 0.72290 | 22.3548 | 78.4248 | 344.1636 | 2.26613 | 4.243 |
| 2026 Apr 13 17:57 | 2026 Apr 12 22:46:36 | 7.7853 | 0.72290 | 22.3548 | 78.4248 | 344.1636 | 2.26613 | 4.243 |
| 2026 Apr 12 17:57 | 2026 Apr 08 02:17:23 | 7.7854 | 0.72283 | 22.4751 | 74.7630 | 344.1636 | 2.26613 | 4.243 |
| 2026 Apr 11 17:57 | 2026 Apr 08 02:17:23 | 7.7854 | 0.72283 | 22.4751 | 74.7630 | 344.1636 | 2.26613 | 4.243 |
| 2026 Apr 10 17:58 | 2026 Apr 08 02:17:23 | 7.7854 | 0.72283 | 22.4751 | 74.7630 | 344.1636 | 2.26613 | 4.243 |
| 2026 Apr 09 18:01 | 2026 Apr 08 02:17:23 | 7.7854 | 0.72283 | 22.4751 | 74.7630 | 344.1636 | 2.26613 | 4.243 |
| 2026 Apr 08 17:57 | 2026 Apr 08 02:17:23 | 7.7854 | 0.72283 | 22.4751 | 74.7630 | 344.1636 | 2.26613 | 4.243 |
| 2026 Apr 07 17:57 | 2026 Apr 01 22:01:19 | 7.7846 | 0.72268 | 22.6276 | 70.1005 | 344.1636 | 2.26613 | 4.243 |
| 2026 Apr 06 17:57 | 2026 Apr 01 22:01:19 | 7.7846 | 0.72268 | 22.6276 | 70.1005 | 344.1636 | 2.26613 | 4.243 |